M S San Francisco — WZC3886 — position and weather

sailwx.info

Track history (hours):
 
Tides and Currents Weather Stations Pressure Air Temp Water Temp Dewpoint Dewpoint Depression Visibility Wind Speed Wind Dir Waves Ship Positions

M S San Francisco

Owner: GOLDEN GATE BRIDGE HWY & TRANSP DISTRICT, LARKSPUR, CA. More information available from US FCC via Universal Licensing System and Coast Guard Vessel Documentation Center.

Last reported at 2015-Sep-04 15:34 UTC. Time now 2015-Sep-05 10:16 UTC.
Position N 32°38' W 117°06'.

Length 58 m.

Type: Passenger vessel. MMSI: 366963980.

Date/timePositionNaut miles runAvg speedWind from/ knotsBaromVisibWave heightAir tempDewpointWater temp
2015-Sep-04 15:34N 32°38' W 117°06'0 0.0
2015-Sep-04 14:33N 32°38' W 117°06'0 0.0
2015-Sep-04 13:33N 32°38' W 117°06'0 0.0
2015-Sep-04 12:33N 32°38' W 117°06'0 0.0
2015-Sep-04 11:33N 32°38' W 117°06'0 0.0
2015-Sep-04 10:33N 32°38' W 117°06'0 0.0
2015-Sep-04 09:34N 32°38' W 117°06'0 0.0
2015-Sep-04 08:33N 32°38' W 117°06'0 0.0
2015-Sep-04 07:33N 32°38' W 117°06'0 0.0
2015-Sep-04 06:34N 32°38' W 117°06'0 0.0
2015-Sep-04 05:34N 32°38' W 117°06'0 0.0
2015-Sep-04 04:33N 32°38' W 117°06'0 0.0
2015-Sep-04 03:33N 32°38' W 117°06'0 0.0
2015-Sep-04 02:33N 32°38' W 117°06'0 0.0
2015-Sep-04 01:34N 32°38' W 117°06'3 2.6
2015-Sep-04 00:33N 32°40' W 117°08'9 9.1
2015-Sep-03 23:34N 32°45' W 117°17'1010.3
2015-Sep-03 22:34N 32°55' W 117°20'1212.1
2015-Sep-03 21:34N 32°43' W 117°19'7 7.2
2015-Sep-03 20:33N 32°35' W 117°18'6 6.3
2015-Sep-03 19:33N 32°41' W 117°22'2 1.8
2015-Sep-03 18:33N 32°39' W 117°22'6 6.3
2015-Sep-03 17:33N 32°44' W 117°27'2020.3
2015-Sep-03 16:33N 33°03' W 117°34'1414.2
2015-Sep-03 15:33N 32°49' W 117°29'1716.9
2015-Sep-03 14:33N 32°38' W 117°14'6 6.2
2015-Sep-03 13:33N 32°40' W 117°08'0 0.0
2015-Sep-02 17:33N 32°40' W 117°08'5 4.7
2015-Sep-02 16:33N 32°39' W 117°13'3 3.5
2015-Sep-02 15:33N 32°38' W 117°17'3 3.1
2015-Sep-02 14:33N 32°35' W 117°18'10 9.6
2015-Sep-02 13:33N 32°39' W 117°07'  
Track history (hours):
 
Tides and Currents Weather Stations Pressure Air Temp Water Temp Dewpoint Dewpoint Depression Visibility Wind Speed Wind Dir Waves Ship Positions

M S San Francisco

Owner: GOLDEN GATE BRIDGE HWY & TRANSP DISTRICT, LARKSPUR, CA. More information available from US FCC via Universal Licensing System and Coast Guard Vessel Documentation Center.

Last reported at 2015-Sep-04 15:34 UTC. Time now 2015-Sep-05 10:16 UTC.
Position N 32°38' W 117°06'.

Length 58 m.

Type: Passenger vessel. MMSI: 366963980.

Date/timePositionNaut miles runAvg speedWind from/ knotsBaromVisibWave heightAir tempDewpointWater temp
2015-Sep-04 15:34N 32°38' W 117°06'0 0.0
2015-Sep-04 14:33N 32°38' W 117°06'0 0.0
2015-Sep-04 13:33N 32°38' W 117°06'0 0.0
2015-Sep-04 12:33N 32°38' W 117°06'0 0.0
2015-Sep-04 11:33N 32°38' W 117°06'0 0.0
2015-Sep-04 10:33N 32°38' W 117°06'0 0.0
2015-Sep-04 09:34N 32°38' W 117°06'0 0.0
2015-Sep-04 08:33N 32°38' W 117°06'0 0.0
2015-Sep-04 07:33N 32°38' W 117°06'0 0.0
2015-Sep-04 06:34N 32°38' W 117°06'0 0.0
2015-Sep-04 05:34N 32°38' W 117°06'0 0.0
2015-Sep-04 04:33N 32°38' W 117°06'0 0.0
2015-Sep-04 03:33N 32°38' W 117°06'0 0.0
2015-Sep-04 02:33N 32°38' W 117°06'0 0.0
2015-Sep-04 01:34N 32°38' W 117°06'3 2.6
2015-Sep-04 00:33N 32°40' W 117°08'9 9.1
2015-Sep-03 23:34N 32°45' W 117°17'1010.3
2015-Sep-03 22:34N 32°55' W 117°20'1212.1
2015-Sep-03 21:34N 32°43' W 117°19'7 7.2
2015-Sep-03 20:33N 32°35' W 117°18'6 6.3
2015-Sep-03 19:33N 32°41' W 117°22'2 1.8
2015-Sep-03 18:33N 32°39' W 117°22'6 6.3
2015-Sep-03 17:33N 32°44' W 117°27'2020.3
2015-Sep-03 16:33N 33°03' W 117°34'1414.2
2015-Sep-03 15:33N 32°49' W 117°29'1716.9
2015-Sep-03 14:33N 32°38' W 117°14'6 6.2
2015-Sep-03 13:33N 32°40' W 117°08'0 0.0
2015-Sep-02 17:33N 32°40' W 117°08'5 4.7
2015-Sep-02 16:33N 32°39' W 117°13'3 3.5
2015-Sep-02 15:33N 32°38' W 117°17'3 3.1
2015-Sep-02 14:33N 32°35' W 117°18'10 9.6
2015-Sep-02 13:33N 32°39' W 117°07'  

Dump ship's entire track history